sensor_id;sensor_type;location;lat;lon;timestamp;pressure;altitude;pressure_sealevel;temperature;humidity
59417;BME280;45222;52.458;20.914;2024-03-22T00:02:40;100780.24;;;8.31;88.13
59417;BME280;45222;52.458;20.914;2024-03-22T00:06:24;100779.57;;;8.36;88.09
59417;BME280;45222;52.458;20.914;2024-03-22T00:10:09;100779.19;;;8.36;87.62
59417;BME280;45222;52.458;20.914;2024-03-22T00:13:54;100782.64;;;8.39;87.68
59417;BME280;45222;52.458;20.914;2024-03-22T00:17:38;100780.31;;;8.40;87.80
59417;BME280;45222;52.458;20.914;2024-03-22T00:21:23;100779.80;;;8.39;88.05
59417;BME280;45222;52.458;20.914;2024-03-22T00:25:08;100777.98;;;8.35;88.19
59417;BME280;45222;52.458;20.914;2024-03-22T00:28:53;100778.04;;;8.33;88.21
59417;BME280;45222;52.458;20.914;2024-03-22T00:32:37;100772.80;;;8.30;88.09
59417;BME280;45222;52.458;20.914;2024-03-22T00:36:22;100770.15;;;8.30;88.01
59417;BME280;45222;52.458;20.914;2024-03-22T00:40:08;100765.65;;;8.32;88.33
59417;BME280;45222;52.458;20.914;2024-03-22T00:43:53;100762.59;;;8.34;88.40
59417;BME280;45222;52.458;20.914;2024-03-22T00:47:37;100760.04;;;8.37;88.62
59417;BME280;45222;52.458;20.914;2024-03-22T00:51:22;100759.23;;;8.39;88.32
59417;BME280;45222;52.458;20.914;2024-03-22T00:55:07;100758.14;;;8.40;88.30
59417;BME280;45222;52.458;20.914;2024-03-22T00:58:52;100763.12;;;8.40;88.33
59417;BME280;45222;52.458;20.914;2024-03-22T01:02:36;100764.96;;;8.43;88.68
59417;BME280;45222;52.458;20.914;2024-03-22T01:06:21;100773.05;;;8.45;88.67
59417;BME280;45222;52.458;20.914;2024-03-22T01:10:09;100770.51;;;8.41;88.52
59417;BME280;45222;52.458;20.914;2024-03-22T01:13:54;100770.77;;;8.33;88.46
59417;BME280;45222;52.458;20.914;2024-03-22T01:17:38;100767.95;;;8.32;88.66
59417;BME280;45222;52.458;20.914;2024-03-22T01:21:24;100764.67;;;8.30;88.84
59417;BME280;45222;52.458;20.914;2024-03-22T01:25:09;100762.59;;;8.28;89.18
59417;BME280;45222;52.458;20.914;2024-03-22T01:28:54;100757.42;;;8.29;89.46
59417;BME280;45222;52.458;20.914;2024-03-22T01:32:38;100755.86;;;8.34;89.40
59417;BME280;45222;52.458;20.914;2024-03-22T01:36:23;100761.36;;;8.39;89.28
59417;BME280;45222;52.458;20.914;2024-03-22T01:40:26;100768.10;;;8.44;89.36
59417;BME280;45222;52.458;20.914;2024-03-22T01:44:31;100760.92;;;8.41;89.46
59417;BME280;45222;52.458;20.914;2024-03-22T01:48:35;100757.37;;;8.26;89.57
59417;BME280;45222;52.458;20.914;2024-03-22T01:52:20;100760.73;;;8.09;89.71
59417;BME280;45222;52.458;20.914;2024-03-22T01:56:06;100757.33;;;7.99;90.13
59417;BME280;45222;52.458;20.914;2024-03-22T01:59:54;100756.55;;;7.90;90.60
59417;BME280;45222;52.458;20.914;2024-03-22T02:03:40;100762.37;;;7.79;90.84
59417;BME280;45222;52.458;20.914;2024-03-22T02:07:26;100761.05;;;7.70;91.12
59417;BME280;45222;52.458;20.914;2024-03-22T02:11:12;100761.19;;;7.60;91.80
59417;BME280;45222;52.458;20.914;2024-03-22T02:14:58;100759.66;;;7.51;92.26
59417;BME280;45222;52.458;20.914;2024-03-22T02:18:43;100759.42;;;7.47;92.11
59417;BME280;45222;52.458;20.914;2024-03-22T02:22:29;100760.63;;;7.43;92.56
59417;BME280;45222;52.458;20.914;2024-03-22T02:26:13;100762.35;;;7.38;92.54
59417;BME280;45222;52.458;20.914;2024-03-22T02:29:58;100763.71;;;7.34;92.61
59417;BME280;45222;52.458;20.914;2024-03-22T02:33:42;100763.55;;;7.28;92.91
59417;BME280;45222;52.458;20.914;2024-03-22T02:37:27;100770.30;;;7.20;93.00
59417;BME280;45222;52.458;20.914;2024-03-22T02:41:12;100772.82;;;7.12;93.43
59417;BME280;45222;52.458;20.914;2024-03-22T02:44:57;100768.23;;;7.05;93.53
59417;BME280;45222;52.458;20.914;2024-03-22T02:48:41;100762.75;;;6.98;93.80
59417;BME280;45222;52.458;20.914;2024-03-22T02:52:26;100766.33;;;6.91;93.69
59417;BME280;45222;52.458;20.914;2024-03-22T02:56:10;100768.09;;;6.84;93.63
59417;BME280;45222;52.458;20.914;2024-03-22T02:59:55;100768.92;;;6.79;93.79
59417;BME280;45222;52.458;20.914;2024-03-22T03:03:40;100770.30;;;6.73;93.65
59417;BME280;45222;52.458;20.914;2024-03-22T03:07:25;100772.16;;;6.70;93.49
59417;BME280;45222;52.458;20.914;2024-03-22T03:11:09;100780.14;;;6.69;93.33
59417;BME280;45222;52.458;20.914;2024-03-22T03:14:54;100779.83;;;6.67;93.79
59417;BME280;45222;52.458;20.914;2024-03-22T03:18:38;100783.30;;;6.63;93.91
59417;BME280;45222;52.458;20.914;2024-03-22T03:22:23;100789.09;;;6.57;93.81
59417;BME280;45222;52.458;20.914;2024-03-22T03:26:08;100787.77;;;6.54;93.87
59417;BME280;45222;52.458;20.914;2024-03-22T03:29:52;100788.71;;;6.52;94.14
59417;BME280;45222;52.458;20.914;2024-03-22T03:33:37;100786.85;;;6.48;94.29
59417;BME280;45222;52.458;20.914;2024-03-22T03:37:21;100787.26;;;6.46;93.91
59417;BME280;45222;52.458;20.914;2024-03-22T03:41:06;100786.20;;;6.46;93.79
59417;BME280;45222;52.458;20.914;2024-03-22T03:44:51;100789.93;;;6.45;93.35
59417;BME280;45222;52.458;20.914;2024-03-22T03:48:35;100787.75;;;6.40;93.10
59417;BME280;45222;52.458;20.914;2024-03-22T03:52:19;100791.70;;;6.38;93.12
59417;BME280;45222;52.458;20.914;2024-03-22T03:56:04;100789.06;;;6.37;93.29
59417;BME280;45222;52.458;20.914;2024-03-22T03:59:49;100799.48;;;6.37;93.22
59417;BME280;45222;52.458;20.914;2024-03-22T04:03:33;100807.34;;;6.34;93.13
59417;BME280;45222;52.458;20.914;2024-03-22T04:07:18;100812.04;;;6.29;93.17
59417;BME280;45222;52.458;20.914;2024-03-22T04:11:03;100810.48;;;6.27;93.33
59417;BME280;45222;52.458;20.914;2024-03-22T04:14:48;100803.67;;;6.25;93.33
59417;BME280;45222;52.458;20.914;2024-03-22T04:18:32;100804.00;;;6.25;93.15
59417;BME280;45222;52.458;20.914;2024-03-22T04:22:17;100803.49;;;6.25;93.19
59417;BME280;45222;52.458;20.914;2024-03-22T04:26:02;100807.80;;;6.22;93.18
59417;BME280;45222;52.458;20.914;2024-03-22T04:29:48;100809.48;;;6.17;93.05
59417;BME280;45222;52.458;20.914;2024-03-22T04:33:33;100811.61;;;6.17;93.25
59417;BME280;45222;52.458;20.914;2024-03-22T04:37:18;100812.08;;;6.20;93.32
59417;BME280;45222;52.458;20.914;2024-03-22T04:41:02;100811.10;;;6.24;93.02
59417;BME280;45222;52.458;20.914;2024-03-22T04:44:47;100802.56;;;6.26;92.94
59417;BME280;45222;52.458;20.914;2024-03-22T04:48:31;100798.48;;;6.27;92.71
59417;BME280;45222;52.458;20.914;2024-03-22T04:52:16;100805.61;;;6.32;92.69
59417;BME280;45222;52.458;20.914;2024-03-22T04:56:00;100810.81;;;6.36;92.42
59417;BME280;45222;52.458;20.914;2024-03-22T04:59:46;100812.34;;;6.39;92.41
59417;BME280;45222;52.458;20.914;2024-03-22T05:03:31;100808.94;;;6.40;92.40
59417;BME280;45222;52.458;20.914;2024-03-22T05:07:16;100804.09;;;6.44;92.27
59417;BME280;45222;52.458;20.914;2024-03-22T05:11:01;100806.16;;;6.53;91.87
59417;BME280;45222;52.458;20.914;2024-03-22T05:14:46;100811.52;;;6.58;91.69
59417;BME280;45222;52.458;20.914;2024-03-22T05:18:31;100807.38;;;6.61;91.37
59417;BME280;45222;52.458;20.914;2024-03-22T05:22:16;100800.98;;;6.62;91.46
59417;BME280;45222;52.458;20.914;2024-03-22T05:26:00;100802.54;;;6.64;91.29
59417;BME280;45222;52.458;20.914;2024-03-22T05:29:45;100799.23;;;6.68;91.08
59417;BME280;45222;52.458;20.914;2024-03-22T05:33:29;100799.64;;;6.74;90.70
59417;BME280;45222;52.458;20.914;2024-03-22T05:37:14;100801.54;;;6.76;90.76
59417;BME280;45222;52.458;20.914;2024-03-22T05:41:03;100803.91;;;6.79;90.71
59417;BME280;45222;52.458;20.914;2024-03-22T05:44:48;100802.46;;;6.81;90.78
59417;BME280;45222;52.458;20.914;2024-03-22T05:48:33;100805.27;;;6.82;90.43
59417;BME280;45222;52.458;20.914;2024-03-22T05:52:17;100795.82;;;6.84;90.11
59417;BME280;45222;52.458;20.914;2024-03-22T05:56:02;100795.88;;;6.90;90.12
59417;BME280;45222;52.458;20.914;2024-03-22T05:59:46;100797.35;;;6.94;90.10
59417;BME280;45222;52.458;20.914;2024-03-22T06:03:33;100796.71;;;6.98;90.00
59417;BME280;45222;52.458;20.914;2024-03-22T06:07:17;100802.33;;;7.00;89.79
59417;BME280;45222;52.458;20.914;2024-03-22T06:11:02;100806.03;;;7.00;89.53
59417;BME280;45222;52.458;20.914;2024-03-22T06:14:47;100808.64;;;7.02;89.41
59417;BME280;45222;52.458;20.914;2024-03-22T06:18:32;100810.25;;;7.07;89.50
59417;BME280;45222;52.458;20.914;2024-03-22T06:22:17;100807.08;;;7.14;89.57
59417;BME280;45222;52.458;20.914;2024-03-22T06:26:02;100806.90;;;7.20;89.45
59417;BME280;45222;52.458;20.914;2024-03-22T06:29:46;100811.80;;;7.22;89.08
59417;BME280;45222;52.458;20.914;2024-03-22T06:33:31;100805.73;;;7.24;88.87
59417;BME280;45222;52.458;20.914;2024-03-22T06:37:15;100809.16;;;7.28;88.77
59417;BME280;45222;52.458;20.914;2024-03-22T06:41:00;100810.09;;;7.33;88.80
59417;BME280;45222;52.458;20.914;2024-03-22T06:44:45;100810.63;;;7.39;88.88
59417;BME280;45222;52.458;20.914;2024-03-22T06:48:29;100803.04;;;7.45;88.65
59417;BME280;45222;52.458;20.914;2024-03-22T06:52:14;100805.33;;;7.45;88.27
59417;BME280;45222;52.458;20.914;2024-03-22T06:55:58;100804.39;;;7.41;87.97
59417;BME280;45222;52.458;20.914;2024-03-22T06:59:43;100805.13;;;7.40;88.02
59417;BME280;45222;52.458;20.914;2024-03-22T07:03:28;100803.29;;;7.42;88.16
59417;BME280;45222;52.458;20.914;2024-03-22T07:07:12;100804.02;;;7.47;88.26
59417;BME280;45222;52.458;20.914;2024-03-22T07:10:57;100802.34;;;7.50;88.23
59417;BME280;45222;52.458;20.914;2024-03-22T07:14:41;100806.26;;;7.49;87.75
59417;BME280;45222;52.458;20.914;2024-03-22T07:18:26;100801.98;;;7.44;87.79
59417;BME280;45222;52.458;20.914;2024-03-22T07:22:11;100795.54;;;7.47;87.75
59417;BME280;45222;52.458;20.914;2024-03-22T07:25:55;100791.11;;;7.54;87.65
59417;BME280;45222;52.458;20.914;2024-03-22T07:29:40;100790.06;;;7.59;87.56
59417;BME280;45222;52.458;20.914;2024-03-22T07:33:25;100789.40;;;7.63;87.35
59417;BME280;45222;52.458;20.914;2024-03-22T07:37:10;100787.02;;;7.66;87.03
59417;BME280;45222;52.458;20.914;2024-03-22T07:40:54;100781.86;;;7.73;87.01
59417;BME280;45222;52.458;20.914;2024-03-22T07:44:39;100782.23;;;7.84;87.04
59417;BME280;45222;52.458;20.914;2024-03-22T07:48:24;100783.37;;;7.93;87.09
59417;BME280;45222;52.458;20.914;2024-03-22T07:52:08;100787.61;;;7.94;86.60
59417;BME280;45222;52.458;20.914;2024-03-22T07:55:53;100784.82;;;7.86;86.44
59417;BME280;45222;52.458;20.914;2024-03-22T07:59:38;100789.99;;;7.79;86.28
59417;BME280;45222;52.458;20.914;2024-03-22T08:03:22;100787.80;;;7.75;86.45
59417;BME280;45222;52.458;20.914;2024-03-22T08:07:07;100789.36;;;7.76;86.63
59417;BME280;45222;52.458;20.914;2024-03-22T08:10:52;100784.20;;;7.78;86.71
59417;BME280;45222;52.458;20.914;2024-03-22T08:14:37;100785.58;;;7.79;86.41
59417;BME280;45222;52.458;20.914;2024-03-22T08:18:22;100782.61;;;7.77;86.10
59417;BME280;45222;52.458;20.914;2024-03-22T08:22:07;100784.48;;;7.74;85.84
59417;BME280;45222;52.458;20.914;2024-03-22T08:25:52;100781.70;;;7.73;86.10
59417;BME280;45222;52.458;20.914;2024-03-22T08:29:37;100782.15;;;7.75;86.37
59417;BME280;45222;52.458;20.914;2024-03-22T08:33:22;100779.78;;;7.77;86.49
59417;BME280;45222;52.458;20.914;2024-03-22T08:37:06;100779.16;;;7.80;86.56
59417;BME280;45222;52.458;20.914;2024-03-22T08:40:51;100775.09;;;7.86;86.41
59417;BME280;45222;52.458;20.914;2024-03-22T08:44:36;100772.75;;;7.87;85.98
59417;BME280;45222;52.458;20.914;2024-03-22T08:48:21;100765.61;;;7.89;85.94
59417;BME280;45222;52.458;20.914;2024-03-22T08:52:05;100766.88;;;7.94;85.93
59417;BME280;45222;52.458;20.914;2024-03-22T08:55:50;100763.73;;;7.98;85.97
59417;BME280;45222;52.458;20.914;2024-03-22T08:59:34;100769.50;;;8.01;85.75
59417;BME280;45222;52.458;20.914;2024-03-22T09:03:20;100771.33;;;7.99;85.34
59417;BME280;45222;52.458;20.914;2024-03-22T09:07:05;100771.17;;;7.98;85.04
59417;BME280;45222;52.458;20.914;2024-03-22T09:10:49;100767.44;;;7.99;85.20
59417;BME280;45222;52.458;20.914;2024-03-22T09:14:34;100768.20;;;8.03;85.29
59417;BME280;45222;52.458;20.914;2024-03-22T09:18:18;100766.55;;;8.04;85.16
59417;BME280;45222;52.458;20.914;2024-03-22T09:22:04;100763.64;;;8.07;85.04
59417;BME280;45222;52.458;20.914;2024-03-22T09:25:49;100759.74;;;8.07;84.64
59417;BME280;45222;52.458;20.914;2024-03-22T09:29:33;100750.95;;;8.05;84.10
59417;BME280;45222;52.458;20.914;2024-03-22T09:33:18;100749.17;;;8.04;84.09
59417;BME280;45222;52.458;20.914;2024-03-22T09:37:02;100739.61;;;8.10;84.31
59417;BME280;45222;52.458;20.914;2024-03-22T09:40:47;100733.35;;;8.18;84.13
59417;BME280;45222;52.458;20.914;2024-03-22T09:44:32;100731.19;;;8.25;83.71
59417;BME280;45222;52.458;20.914;2024-03-22T09:48:17;100725.09;;;8.32;83.59
59417;BME280;45222;52.458;20.914;2024-03-22T09:52:03;100719.70;;;8.44;83.59
59417;BME280;45222;52.458;20.914;2024-03-22T09:55:49;100719.59;;;8.54;83.59
59417;BME280;45222;52.458;20.914;2024-03-22T09:59:34;100714.84;;;8.58;83.22
59417;BME280;45222;52.458;20.914;2024-03-22T10:03:18;100708.12;;;8.52;83.23
59417;BME280;45222;52.458;20.914;2024-03-22T10:07:03;100705.59;;;8.48;82.95
59417;BME280;45222;52.458;20.914;2024-03-22T10:10:48;100703.25;;;8.49;83.27
59417;BME280;45222;52.458;20.914;2024-03-22T10:14:33;100700.73;;;8.50;83.23
59417;BME280;45222;52.458;20.914;2024-03-22T10:18:18;100700.59;;;8.49;83.39
59417;BME280;45222;52.458;20.914;2024-03-22T10:22:04;100699.48;;;8.51;83.17
59417;BME280;45222;52.458;20.914;2024-03-22T10:25:49;100699.10;;;8.52;83.37
59417;BME280;45222;52.458;20.914;2024-03-22T10:29:34;100700.97;;;8.54;83.15
59417;BME280;45222;52.458;20.914;2024-03-22T10:33:20;100691.33;;;8.56;83.33
59417;BME280;45222;52.458;20.914;2024-03-22T10:37:08;100688.20;;;8.54;83.35
59417;BME280;45222;52.458;20.914;2024-03-22T10:40:54;100689.27;;;8.48;83.32
59417;BME280;45222;52.458;20.914;2024-03-22T10:44:40;100678.72;;;8.41;83.25
59417;BME280;45222;52.458;20.914;2024-03-22T10:48:29;100675.71;;;8.41;83.61
59417;BME280;45222;52.458;20.914;2024-03-22T10:52:14;100674.00;;;8.49;83.86
59417;BME280;45222;52.458;20.914;2024-03-22T10:56:01;100670.07;;;8.61;84.02
59417;BME280;45222;52.458;20.914;2024-03-22T10:59:47;100666.00;;;8.66;83.98
59417;BME280;45222;52.458;20.914;2024-03-22T11:03:32;100668.14;;;8.66;83.93
59417;BME280;45222;52.458;20.914;2024-03-22T11:07:20;100663.31;;;8.67;83.92
59417;BME280;45222;52.458;20.914;2024-03-22T11:11:10;100658.06;;;8.69;84.03
59417;BME280;45222;52.458;20.914;2024-03-22T11:14:56;100657.03;;;8.74;83.94
59417;BME280;45222;52.458;20.914;2024-03-22T11:18:40;100651.55;;;8.78;84.10
59417;BME280;45222;52.458;20.914;2024-03-22T11:22:26;100648.73;;;8.78;83.87
59417;BME280;45222;52.458;20.914;2024-03-22T11:26:10;100643.14;;;8.70;83.30
59417;BME280;45222;52.458;20.914;2024-03-22T11:29:56;100639.30;;;8.64;83.48
59417;BME280;45222;52.458;20.914;2024-03-22T11:33:40;100637.77;;;8.62;83.59
59417;BME280;45222;52.458;20.914;2024-03-22T11:37:25;100635.52;;;8.61;83.81
59417;BME280;45222;52.458;20.914;2024-03-22T11:41:10;100634.38;;;8.63;83.82
59417;BME280;45222;52.458;20.914;2024-03-22T11:44:56;100627.50;;;8.62;83.77
59417;BME280;45222;52.458;20.914;2024-03-22T11:48:41;100615.34;;;8.65;83.65
59417;BME280;45222;52.458;20.914;2024-03-22T11:52:26;100610.02;;;8.74;83.36
59417;BME280;45222;52.458;20.914;2024-03-22T11:56:10;100612.44;;;8.90;83.18
59417;BME280;45222;52.458;20.914;2024-03-22T11:59:59;100609.75;;;9.05;82.97
59417;BME280;45222;52.458;20.914;2024-03-22T12:03:45;100610.36;;;9.17;82.25
59417;BME280;45222;52.458;20.914;2024-03-22T12:07:31;100604.72;;;9.21;81.78
59417;BME280;45222;52.458;20.914;2024-03-22T12:11:17;100600.59;;;9.22;81.09
59417;BME280;45222;52.458;20.914;2024-03-22T12:15:01;100599.71;;;9.22;80.97
59417;BME280;45222;52.458;20.914;2024-03-22T12:18:46;100595.06;;;9.23;80.52
59417;BME280;45222;52.458;20.914;2024-03-22T12:22:30;100592.49;;;9.25;80.95
59417;BME280;45222;52.458;20.914;2024-03-22T12:26:15;100589.05;;;9.26;80.50
59417;BME280;45222;52.458;20.914;2024-03-22T12:29:59;100584.64;;;9.31;80.79
59417;BME280;45222;52.458;20.914;2024-03-22T12:33:44;100579.65;;;9.35;79.96
59417;BME280;45222;52.458;20.914;2024-03-22T12:37:29;100572.02;;;9.40;79.89
59417;BME280;45222;52.458;20.914;2024-03-22T12:41:14;100568.48;;;9.49;79.94
59417;BME280;45222;52.458;20.914;2024-03-22T12:44:58;100562.92;;;9.50;79.24
59417;BME280;45222;52.458;20.914;2024-03-22T12:48:43;100558.19;;;9.48;78.96
59417;BME280;45222;52.458;20.914;2024-03-22T12:52:27;100555.90;;;9.48;78.80
59417;BME280;45222;52.458;20.914;2024-03-22T12:56:12;100552.77;;;9.51;78.91
59417;BME280;45222;52.458;20.914;2024-03-22T12:59:57;100548.47;;;9.56;79.19
59417;BME280;45222;52.458;20.914;2024-03-22T13:03:42;100547.90;;;9.57;79.00
59417;BME280;45222;52.458;20.914;2024-03-22T13:07:26;100540.58;;;9.58;78.77
59417;BME280;45222;52.458;20.914;2024-03-22T13:11:12;100530.25;;;9.63;78.26
59417;BME280;45222;52.458;20.914;2024-03-22T13:14:58;100525.68;;;9.71;78.75
59417;BME280;45222;52.458;20.914;2024-03-22T13:18:43;100512.89;;;9.78;78.23
59417;BME280;45222;52.458;20.914;2024-03-22T13:22:27;100503.95;;;9.84;78.27
59417;BME280;45222;52.458;20.914;2024-03-22T13:26:12;100500.10;;;9.87;77.34
59417;BME280;45222;52.458;20.914;2024-03-22T13:29:56;100495.85;;;9.87;76.96
59417;BME280;45222;52.458;20.914;2024-03-22T13:33:41;100488.96;;;9.94;76.67
59417;BME280;45222;52.458;20.914;2024-03-22T13:37:26;100490.99;;;10.04;76.45
59417;BME280;45222;52.458;20.914;2024-03-22T13:41:10;100493.55;;;10.11;75.69
59417;BME280;45222;52.458;20.914;2024-03-22T13:44:56;100487.65;;;10.12;75.79
59417;BME280;45222;52.458;20.914;2024-03-22T13:48:41;100483.16;;;10.09;75.31
59417;BME280;45222;52.458;20.914;2024-03-22T13:52:25;100477.08;;;10.02;75.37
59417;BME280;45222;52.458;20.914;2024-03-22T13:56:10;100470.73;;;10.00;75.90
59417;BME280;45222;52.458;20.914;2024-03-22T13:59:54;100470.38;;;9.96;75.54
59417;BME280;45222;52.458;20.914;2024-03-22T14:03:39;100461.30;;;9.89;75.23
59417;BME280;45222;52.458;20.914;2024-03-22T14:07:24;100453.60;;;9.82;75.50
59417;BME280;45222;52.458;20.914;2024-03-22T14:11:08;100445.95;;;9.78;75.76
59417;BME280;45222;52.458;20.914;2024-03-22T14:14:53;100445.27;;;9.78;75.99
59417;BME280;45222;52.458;20.914;2024-03-22T14:18:37;100441.73;;;9.77;76.02
59417;BME280;45222;52.458;20.914;2024-03-22T14:22:22;100434.64;;;9.77;76.09
59417;BME280;45222;52.458;20.914;2024-03-22T14:26:07;100425.03;;;9.74;76.33
59417;BME280;45222;52.458;20.914;2024-03-22T14:29:51;100421.89;;;9.72;76.84
59417;BME280;45222;52.458;20.914;2024-03-22T14:33:39;100413.64;;;9.70;77.06
59417;BME280;45222;52.458;20.914;2024-03-22T14:37:24;100414.30;;;9.67;77.15
59417;BME280;45222;52.458;20.914;2024-03-22T14:41:08;100405.36;;;9.64;77.35
59417;BME280;45222;52.458;20.914;2024-03-22T14:44:53;100400.23;;;9.64;77.13
59417;BME280;45222;52.458;20.914;2024-03-22T14:48:39;100393.96;;;9.65;77.39
59417;BME280;45222;52.458;20.914;2024-03-22T14:52:24;100393.95;;;9.65;77.68
59417;BME280;45222;52.458;20.914;2024-03-22T14:56:09;100389.45;;;9.63;77.59
59417;BME280;45222;52.458;20.914;2024-03-22T14:59:53;100392.25;;;9.59;77.44
59417;BME280;45222;52.458;20.914;2024-03-22T15:03:38;100392.30;;;9.54;77.70
59417;BME280;45222;52.458;20.914;2024-03-22T15:07:22;100389.69;;;9.53;77.90
59417;BME280;45222;52.458;20.914;2024-03-22T15:11:07;100385.45;;;9.53;78.33
59417;BME280;45222;52.458;20.914;2024-03-22T15:14:52;100379.64;;;9.52;78.46
59417;BME280;45222;52.458;20.914;2024-03-22T15:18:37;100372.73;;;9.47;78.56
59417;BME280;45222;52.458;20.914;2024-03-22T15:22:22;100372.09;;;9.42;78.78
59417;BME280;45222;52.458;20.914;2024-03-22T15:26:07;100363.62;;;9.36;79.31
59417;BME280;45222;52.458;20.914;2024-03-22T15:29:51;100355.13;;;9.32;79.74
59417;BME280;45222;52.458;20.914;2024-03-22T15:33:36;100348.09;;;9.26;80.16
59417;BME280;45222;52.458;20.914;2024-03-22T15:37:20;100343.20;;;9.20;80.11
59417;BME280;45222;52.458;20.914;2024-03-22T15:41:05;100336.20;;;9.14;80.70
59417;BME280;45222;52.458;20.914;2024-03-22T15:44:50;100330.48;;;9.10;81.03
59417;BME280;45222;52.458;20.914;2024-03-22T15:48:34;100321.67;;;9.09;81.03
59417;BME280;45222;52.458;20.914;2024-03-22T15:52:19;100327.55;;;9.08;81.39
59417;BME280;45222;52.458;20.914;2024-03-22T15:56:05;100322.16;;;9.10;81.75
59417;BME280;45222;52.458;20.914;2024-03-22T15:59:51;100318.03;;;9.07;81.66
59417;BME280;45222;52.458;20.914;2024-03-22T16:03:36;100309.71;;;9.02;81.53
59417;BME280;45222;52.458;20.914;2024-03-22T16:07:21;100304.55;;;8.99;81.66
59417;BME280;45222;52.458;20.914;2024-03-22T16:11:06;100295.67;;;8.99;81.85
59417;BME280;45222;52.458;20.914;2024-03-22T16:14:50;100291.53;;;9.00;82.07
59417;BME280;45222;52.458;20.914;2024-03-22T16:18:35;100285.48;;;9.01;82.20
59417;BME280;45222;52.458;20.914;2024-03-22T16:22:20;100292.08;;;9.00;82.24
59417;BME280;45222;52.458;20.914;2024-03-22T16:26:05;100294.27;;;8.98;82.44
59417;BME280;45222;52.458;20.914;2024-03-22T16:29:49;100285.87;;;8.96;82.24
59417;BME280;45222;52.458;20.914;2024-03-22T16:33:34;100281.87;;;8.94;82.20
59417;BME280;45222;52.458;20.914;2024-03-22T16:37:18;100287.15;;;8.95;82.27
59417;BME280;45222;52.458;20.914;2024-03-22T16:41:03;100292.08;;;8.92;82.02
59417;BME280;45222;52.458;20.914;2024-03-22T16:44:48;100286.60;;;8.88;81.75
59417;BME280;45222;52.458;20.914;2024-03-22T16:48:33;100280.38;;;8.83;81.76
59417;BME280;45222;52.458;20.914;2024-03-22T16:52:18;100281.29;;;8.83;81.73
59417;BME280;45222;52.458;20.914;2024-03-22T16:56:03;100275.64;;;8.82;81.95
59417;BME280;45222;52.458;20.914;2024-03-22T16:59:47;100272.67;;;8.81;81.82
59417;BME280;45222;52.458;20.914;2024-03-22T17:03:32;100268.55;;;8.78;81.53
59417;BME280;45222;52.458;20.914;2024-03-22T17:07:18;100269.77;;;8.78;81.59
59417;BME280;45222;52.458;20.914;2024-03-22T17:11:03;100266.70;;;8.80;81.57
59417;BME280;45222;52.458;20.914;2024-03-22T17:14:48;100264.42;;;8.79;81.44
59417;BME280;45222;52.458;20.914;2024-03-22T17:18:34;100262.77;;;8.76;81.39
59417;BME280;45222;52.458;20.914;2024-03-22T17:22:18;100260.92;;;8.74;81.32
59417;BME280;45222;52.458;20.914;2024-03-22T17:26:04;100261.65;;;8.74;81.46
59417;BME280;45222;52.458;20.914;2024-03-22T17:29:49;100258.21;;;8.75;81.62
59417;BME280;45222;52.458;20.914;2024-03-22T17:33:34;100253.70;;;8.77;81.63
59417;BME280;45222;52.458;20.914;2024-03-22T17:37:18;100249.99;;;8.77;81.58
59417;BME280;45222;52.458;20.914;2024-03-22T17:41:03;100234.68;;;8.74;81.55
59417;BME280;45222;52.458;20.914;2024-03-22T17:44:49;100232.86;;;8.71;81.46
59417;BME280;45222;52.458;20.914;2024-03-22T17:48:34;100220.45;;;8.71;81.52
59417;BME280;45222;52.458;20.914;2024-03-22T17:52:19;100216.13;;;8.72;81.75
59417;BME280;45222;52.458;20.914;2024-03-22T17:56:07;100213.64;;;8.72;81.64
59417;BME280;45222;52.458;20.914;2024-03-22T17:59:52;100213.33;;;8.71;81.45
59417;BME280;45222;52.458;20.914;2024-03-22T18:03:37;100210.27;;;8.68;81.20
59417;BME280;45222;52.458;20.914;2024-03-22T18:07:23;100208.53;;;8.64;80.93
59417;BME280;45222;52.458;20.914;2024-03-22T18:11:09;100207.86;;;8.63;80.99
59417;BME280;45222;52.458;20.914;2024-03-22T18:14:56;100202.90;;;8.63;81.33
59417;BME280;45222;52.458;20.914;2024-03-22T18:18:41;100204.52;;;8.62;81.24
59417;BME280;45222;52.458;20.914;2024-03-22T18:22:25;100197.70;;;8.60;81.23
59417;BME280;45222;52.458;20.914;2024-03-22T18:26:10;100200.12;;;8.57;81.36
59417;BME280;45222;52.458;20.914;2024-03-22T18:29:54;100199.02;;;8.58;81.59
59417;BME280;45222;52.458;20.914;2024-03-22T18:33:39;100195.14;;;8.62;81.90
59417;BME280;45222;52.458;20.914;2024-03-22T18:37:24;100191.02;;;8.67;82.07
59417;BME280;45222;52.458;20.914;2024-03-22T18:41:09;100183.41;;;8.70;81.90
59417;BME280;45222;52.458;20.914;2024-03-22T18:44:54;100174.66;;;8.72;81.90
59417;BME280;45222;52.458;20.914;2024-03-22T18:48:39;100171.08;;;8.73;81.72
59417;BME280;45222;52.458;20.914;2024-03-22T18:52:23;100159.23;;;8.76;81.76
59417;BME280;45222;52.458;20.914;2024-03-22T18:56:08;100152.31;;;8.80;81.86
59417;BME280;45222;52.458;20.914;2024-03-22T18:59:54;100146.44;;;8.85;81.82
59417;BME280;45222;52.458;20.914;2024-03-22T19:03:38;100145.91;;;8.89;81.65
59417;BME280;45222;52.458;20.914;2024-03-22T19:07:23;100136.14;;;8.89;81.65
59417;BME280;45222;52.458;20.914;2024-03-22T19:11:08;100135.61;;;8.89;81.30
59417;BME280;45222;52.458;20.914;2024-03-22T19:14:52;100136.02;;;8.92;81.49
59417;BME280;45222;52.458;20.914;2024-03-22T19:18:37;100132.87;;;8.95;81.14
59417;BME280;45222;52.458;20.914;2024-03-22T19:22:21;100127.91;;;8.98;81.16
59417;BME280;45222;52.458;20.914;2024-03-22T19:26:06;100121.79;;;9.01;80.89
59417;BME280;45222;52.458;20.914;2024-03-22T19:29:51;100115.15;;;9.02;80.36
59417;BME280;45222;52.458;20.914;2024-03-22T19:33:36;100107.75;;;9.05;80.36
59417;BME280;45222;52.458;20.914;2024-03-22T19:37:21;100101.40;;;9.08;80.35